createdAt,value
2023-01-17T00:02:40.879Z,97424.03
2023-01-17T00:05:44.455Z,97430.16
2023-01-17T00:08:54.972Z,97425.81
2023-01-17T00:11:40.141Z,97424.81
2023-01-17T00:14:26.624Z,97422.06
2023-01-17T00:17:11.561Z,97412.06
2023-01-17T00:20:15.329Z,97416.19
2023-01-17T00:23:19.014Z,97403.88
2023-01-17T00:26:09.303Z,97411.09
2023-01-17T00:28:54.202Z,97394.22
2023-01-17T00:31:38.617Z,97391.47
2023-01-17T00:34:22.970Z,97394.22
2023-01-17T00:37:07.607Z,97390.13
2023-01-17T00:39:52.443Z,97388.59
2023-01-17T00:42:37.517Z,97389.69
2023-01-17T00:45:41.306Z,97392.00
2023-01-17T00:48:44.217Z,97397.66
2023-01-17T00:51:50.487Z,97389.00
2023-01-17T00:54:53.952Z,97377.25
2023-01-17T00:57:57.432Z,97379.03
2023-01-17T01:01:00.873Z,97370.06
2023-01-17T01:04:04.164Z,97361.19
2023-01-17T01:07:07.350Z,97373.94
2023-01-17T01:10:10.794Z,97375.72
2023-01-17T01:13:14.275Z,97369.38
2023-01-17T01:16:19.082Z,97376.34
2023-01-17T01:19:23.589Z,97380.69
2023-01-17T01:22:26.944Z,97377.88
2023-01-17T01:25:30.484Z,97379.44
2023-01-17T01:28:34.257Z,97378.22
2023-01-17T01:31:37.667Z,97376.44
2023-01-17T01:34:22.981Z,97369.56
2023-01-17T01:37:07.855Z,97367.78
2023-01-17T01:39:52.894Z,97356.81
2023-01-17T01:42:47.194Z,97355.81
2023-01-17T01:45:32.391Z,97349.94
2023-01-17T01:48:17.189Z,97344.63
2023-01-17T01:51:16.919Z,97334.09
2023-01-17T01:54:13.278Z,97341.28
2023-01-17T01:57:02.240Z,97340.06
2023-01-17T01:59:55.601Z,97334.19
2023-01-17T02:02:42.476Z,97339.06
2023-01-17T02:05:27.849Z,97339.28
2023-01-17T02:08:16.109Z,97342.38
2023-01-17T02:11:01.640Z,97334.44
2023-01-17T02:13:46.329Z,97327.56
2023-01-17T02:17:00.366Z,97340.06
2023-01-17T02:20:07.972Z,97341.38
2023-01-17T02:23:30.651Z,97334.72
2023-01-17T02:26:24.819Z,97327.56
2023-01-17T02:29:18.566Z,97320.13
2023-01-17T02:32:21.567Z,97324.22
2023-01-17T02:35:21.849Z,97309.94
2023-01-17T02:38:22.406Z,97320.13
2023-01-17T02:41:15.537Z,97314.25
2023-01-17T02:44:01.904Z,97320.38
2023-01-17T02:46:52.466Z,97312.94
2023-01-17T02:49:37.401Z,97303.97
2023-01-17T02:52:36.697Z,97303.75
2023-01-17T02:55:53.578Z,97304.22
2023-01-17T02:58:52.756Z,97294.03
2023-01-17T03:01:59.822Z,97292.72
2023-01-17T03:04:55.113Z,97288.38
2023-01-17T03:07:43.531Z,97291.16
2023-01-17T03:10:31.755Z,97281.66
2023-01-17T03:13:16.522Z,97283.69
2023-01-17T03:16:06.417Z,97278.78
2023-01-17T03:18:53.143Z,97284.34
2023-01-17T03:21:38.163Z,97269.75
2023-01-17T03:24:23.052Z,97265.91
2023-01-17T03:27:08.055Z,97268.91
2023-01-17T03:29:52.982Z,97261.72
2023-01-17T03:32:37.990Z,97264.41
2023-01-17T03:35:22.893Z,97262.00
2023-01-17T03:38:07.754Z,97262.41
2023-01-17T03:40:53.328Z,97264.84
2023-01-17T03:43:38.335Z,97270.94
2023-01-17T03:46:25.254Z,97269.72
2023-01-17T03:49:09.957Z,97282.53
2023-01-17T03:51:54.753Z,97282.38
2023-01-17T03:54:39.462Z,97273.81
2023-01-17T03:57:24.019Z,97291.53
2023-01-17T04:00:09.242Z,97293.84
2023-01-17T04:02:53.886Z,97288.28
2023-01-17T04:05:39.002Z,97290.13
2023-01-17T04:08:24.046Z,97293.00
2023-01-17T04:11:09.350Z,97282.34
2023-01-17T04:13:54.719Z,97269.63
2023-01-17T04:16:39.628Z,97269.91
2023-01-17T04:19:23.981Z,97268.38
2023-01-17T04:22:08.697Z,97262.44
2023-01-17T04:24:53.947Z,97260.34
2023-01-17T04:27:38.295Z,97259.47
2023-01-17T04:30:23.551Z,97255.09
2023-01-17T04:33:08.236Z,97255.63
2023-01-17T04:35:53.558Z,97251.06
2023-01-17T04:38:38.396Z,97254.19
2023-01-17T04:41:23.231Z,97261.13
2023-01-17T04:44:08.037Z,97266.50
2023-01-17T04:46:52.495Z,97265.28
2023-01-17T04:49:37.539Z,97282.13
2023-01-17T04:52:22.490Z,97280.66
2023-01-17T04:55:08.039Z,97277.34
2023-01-17T04:57:52.922Z,97278.66
2023-01-17T05:00:38.273Z,97284.03
2023-01-17T05:03:23.011Z,97278.19
2023-01-17T05:06:07.925Z,97284.81
2023-01-17T05:08:52.904Z,97288.94
2023-01-17T05:11:38.198Z,97284.16
2023-01-17T05:14:26.376Z,97288.00
2023-01-17T05:17:11.372Z,97280.56
2023-01-17T05:19:56.291Z,97279.34
2023-01-17T05:22:41.192Z,97286.00
2023-01-17T05:25:29.152Z,97289.53
2023-01-17T05:28:13.977Z,97295.41
2023-01-17T05:30:58.970Z,97296.66
2023-01-17T05:33:44.027Z,97305.84
2023-01-17T05:36:29.345Z,97302.81
2023-01-17T05:39:14.762Z,97304.63
2023-01-17T05:41:59.466Z,97306.06
2023-01-17T05:44:44.336Z,97306.75
2023-01-17T05:47:29.248Z,97297.56
2023-01-17T05:50:17.461Z,97302.19
2023-01-17T05:53:06.498Z,97299.34
2023-01-17T05:55:51.423Z,97300.72
2023-01-17T05:58:35.911Z,97296.78
2023-01-17T06:01:20.891Z,97301.56
2023-01-17T06:04:05.575Z,97305.78
2023-01-17T06:06:50.463Z,97317.53
2023-01-17T06:09:35.501Z,97309.91
2023-01-17T06:12:22.040Z,97312.97
2023-01-17T06:15:07.702Z,97310.97
2023-01-17T06:17:52.320Z,97307.97
2023-01-17T06:20:38.881Z,97304.09
2023-01-17T06:23:24.504Z,97299.47
2023-01-17T06:26:09.951Z,97295.41
2023-01-17T06:28:55.331Z,97305.34
2023-01-17T06:31:40.136Z,97308.75
2023-01-17T06:34:24.887Z,97305.75
2023-01-17T06:37:09.617Z,97304.50
2023-01-17T06:39:54.390Z,97302.19
2023-01-17T06:42:38.949Z,97290.75
2023-01-17T06:45:23.688Z,97285.44
2023-01-17T06:48:08.359Z,97285.97
2023-01-17T06:50:53.246Z,97288.31
2023-01-17T06:53:38.078Z,97295.72
2023-01-17T06:56:22.887Z,97305.81
2023-01-17T06:59:07.922Z,97301.50
2023-01-17T07:01:52.551Z,97300.94
2023-01-17T07:04:37.709Z,97307.38
2023-01-17T07:07:22.807Z,97308.91
2023-01-17T07:10:08.407Z,97321.44
2023-01-17T07:12:59.317Z,97317.00
2023-01-17T07:15:44.010Z,97321.03
2023-01-17T07:18:29.426Z,97315.63
2023-01-17T07:21:15.285Z,97316.63
2023-01-17T07:24:00.509Z,97314.38
2023-01-17T07:26:50.145Z,97314.09
2023-01-17T07:29:34.730Z,97314.75
2023-01-17T07:32:19.379Z,97309.66
2023-01-17T07:35:05.691Z,97316.16
2023-01-17T07:37:50.814Z,97322.88
2023-01-17T07:40:41.855Z,97311.78
2023-01-17T07:43:26.753Z,97315.56
2023-01-17T07:46:14.605Z,97312.94
2023-01-17T07:48:59.112Z,97311.94
2023-01-17T07:51:46.323Z,97306.97
2023-01-17T07:54:31.050Z,97306.63
2023-01-17T07:57:16.134Z,97301.19
2023-01-17T08:00:01.634Z,97308.75
2023-01-17T08:02:46.357Z,97303.72
2023-01-17T08:05:31.389Z,97300.16
2023-01-17T08:08:17.857Z,97307.97
2023-01-17T08:11:02.910Z,97317.19
2023-01-17T08:13:48.285Z,97309.00
2023-01-17T08:16:32.969Z,97304.50
2023-01-17T08:19:18.629Z,97307.16
2023-01-17T08:22:03.695Z,97295.00
2023-01-17T08:24:48.593Z,97290.66
2023-01-17T08:27:35.086Z,97285.38
2023-01-17T08:30:20.457Z,97280.44
2023-01-17T08:33:05.504Z,97290.94
2023-01-17T08:35:54.323Z,97282.31
2023-01-17T08:38:39.319Z,97295.00
2023-01-17T08:41:25.987Z,97297.69
2023-01-17T08:44:10.828Z,97295.47
2023-01-17T08:46:55.793Z,97286.38
2023-01-17T08:49:40.844Z,97288.75
2023-01-17T08:52:29.283Z,97292.41
2023-01-17T08:55:14.485Z,97292.50
2023-01-17T08:57:59.260Z,97289.41
2023-01-17T09:00:44.485Z,97296.06
2023-01-17T09:03:30.397Z,97293.81
2023-01-17T09:06:15.718Z,97284.28
2023-01-17T09:09:01.300Z,97288.88
2023-01-17T09:11:46.214Z,97278.28
2023-01-17T09:14:32.351Z,97288.97
2023-01-17T09:17:18.685Z,97290.31
2023-01-17T09:20:03.863Z,97286.09
2023-01-17T09:22:49.097Z,97278.25
2023-01-17T09:25:34.102Z,97271.47
2023-01-17T09:28:20.162Z,97278.97
2023-01-17T09:31:07.542Z,97263.38
2023-01-17T09:33:53.247Z,97261.06
2023-01-17T09:36:38.158Z,97255.41
2023-01-17T09:39:22.814Z,97254.13
2023-01-17T09:42:25.744Z,97241.50
2023-01-17T09:45:17.932Z,97238.94
2023-01-17T09:48:08.178Z,97246.31
2023-01-17T09:50:59.354Z,97233.28
2023-01-17T09:53:43.903Z,97229.25
2023-01-17T09:56:41.128Z,97211.66
2023-01-17T09:59:33.116Z,97217.09
2023-01-17T10:02:39.678Z,97227.66
2023-01-17T10:05:24.271Z,97217.91
2023-01-17T10:08:38.063Z,97226.38
2023-01-17T10:11:41.041Z,97238.19
2023-01-17T10:14:44.198Z,97235.66
2023-01-17T10:17:56.200Z,97225.13
2023-01-17T10:21:10.358Z,97228.19
2023-01-17T10:24:17.884Z,97226.59
2023-01-17T10:27:12.687Z,97231.97
2023-01-17T10:29:57.966Z,97227.59
2023-01-17T10:32:48.258Z,97218.34
2023-01-17T10:35:36.303Z,97218.06
2023-01-17T10:38:30.295Z,97219.84
2023-01-17T10:41:25.108Z,97231.31
2023-01-17T10:44:28.776Z,97223.09
2023-01-17T10:47:22.298Z,97216.41
2023-01-17T10:50:12.650Z,97211.25
2023-01-17T10:53:46.703Z,97202.28
2023-01-17T10:56:33.780Z,97200.22
2023-01-17T10:59:31.778Z,97209.94
2023-01-17T11:02:25.386Z,97219.16
2023-01-17T11:05:19.683Z,97214.53
2023-01-17T11:08:13.259Z,97224.50
2023-01-17T11:11:02.726Z,97216.56
2023-01-17T11:13:49.227Z,97219.84
2023-01-17T11:16:35.233Z,97223.47
2023-01-17T11:19:31.701Z,97218.38
2023-01-17T11:22:17.543Z,97211.69
2023-01-17T11:25:03.876Z,97213.75
2023-01-17T11:28:01.244Z,97223.47
2023-01-17T11:31:00.920Z,97222.94
2023-01-17T11:33:53.196Z,97219.09
2023-01-17T11:36:38.061Z,97215.50
2023-01-17T11:39:26.867Z,97218.56
2023-01-17T11:42:35.786Z,97215.22
2023-01-17T11:45:26.317Z,97211.13
2023-01-17T11:48:15.581Z,97204.38
2023-01-17T11:51:02.216Z,97216.34
2023-01-17T11:53:47.892Z,97219.63
2023-01-17T11:56:36.024Z,97220.03
2023-01-17T11:59:26.813Z,97222.22
2023-01-17T12:02:43.318Z,97207.75
2023-01-17T12:06:06.096Z,97210.41
2023-01-17T12:09:39.568Z,97213.84
2023-01-17T12:12:42.457Z,97213.75
2023-01-17T12:15:30.633Z,97209.34
2023-01-17T12:18:44.705Z,97211.06
2023-01-17T12:21:59.626Z,97198.50
2023-01-17T12:24:49.565Z,97197.41
2023-01-17T12:27:59.236Z,97189.19
2023-01-17T12:30:46.875Z,97183.31
2023-01-17T12:33:51.793Z,97178.16
2023-01-17T12:36:46.911Z,97170.97
2023-01-17T12:39:39.200Z,97171.22
2023-01-17T12:42:32.305Z,97170.75
2023-01-17T12:45:31.568Z,97172.00
2023-01-17T12:48:19.285Z,97170.19
2023-01-17T12:51:03.910Z,97162.25
2023-01-17T12:54:07.773Z,97168.88
2023-01-17T12:56:58.410Z,97175.84
2023-01-17T13:00:11.643Z,97181.00
2023-01-17T13:03:26.896Z,97175.69
2023-01-17T13:06:24.682Z,97171.13
2023-01-17T13:09:16.884Z,97160.13
2023-01-17T13:12:06.708Z,97163.72
2023-01-17T13:14:59.020Z,97159.34
2023-01-17T13:18:14.973Z,97162.13
2023-01-17T13:21:04.286Z,97139.69
2023-01-17T13:23:55.923Z,97137.63
2023-01-17T13:26:53.259Z,97125.56
2023-01-17T13:30:01.047Z,97142.19
2023-01-17T13:33:07.646Z,97153.63
2023-01-17T13:36:29.579Z,97154.34
2023-01-17T13:39:16.979Z,97157.38
2023-01-17T13:42:33.780Z,97155.31
2023-01-17T13:45:26.919Z,97158.41
2023-01-17T13:48:11.633Z,97146.66
2023-01-17T13:51:09.963Z,97146.91
2023-01-17T13:53:55.534Z,97151.69
2023-01-17T13:56:40.375Z,97163.66
2023-01-17T13:59:27.186Z,97176.66
2023-01-17T14:02:37.545Z,97182.56
2023-01-17T14:05:31.199Z,97198.84
2023-01-17T14:08:20.195Z,97191.66
2023-01-17T14:11:09.948Z,97180.69
2023-01-17T14:13:55.012Z,97185.25
2023-01-17T14:16:39.951Z,97180.88
2023-01-17T14:19:26.092Z,97177.78
2023-01-17T14:22:20.130Z,97178.78
2023-01-17T14:25:40.316Z,97171.16
2023-01-17T14:28:30.914Z,97163.75
2023-01-17T14:31:16.956Z,97167.28
2023-01-17T14:34:21.405Z,97169.84
2023-01-17T14:37:16.874Z,97167.28
2023-01-17T14:40:02.243Z,97143.34
2023-01-17T14:42:53.218Z,97142.56
2023-01-17T14:45:39.000Z,97144.81
2023-01-17T14:48:24.567Z,97150.16
2023-01-17T14:51:17.580Z,97160.81
2023-01-17T14:54:06.703Z,97160.81
2023-01-17T14:56:51.786Z,97168.69
2023-01-17T14:59:36.588Z,97176.34
2023-01-17T15:02:21.796Z,97167.44
2023-01-17T15:05:09.376Z,97177.91
2023-01-17T15:07:57.006Z,97198.03
2023-01-17T15:10:55.972Z,97196.56
2023-01-17T15:13:48.800Z,97193.25
2023-01-17T15:16:37.369Z,97185.00
2023-01-17T15:19:22.694Z,97169.81
2023-01-17T15:22:07.880Z,97169.16
2023-01-17T15:24:53.771Z,97171.50
2023-01-17T15:27:38.896Z,97168.69
2023-01-17T15:30:24.695Z,97187.16
2023-01-17T15:33:16.734Z,97194.84
2023-01-17T15:36:08.228Z,97188.94
2023-01-17T15:38:59.556Z,97193.94
2023-01-17T15:41:43.953Z,97200.56
2023-01-17T15:44:49.481Z,97198.47
2023-01-17T15:47:38.588Z,97195.38
2023-01-17T15:50:30.531Z,97195.63
2023-01-17T15:53:33.713Z,97207.94
2023-01-17T15:56:36.593Z,97214.72
2023-01-17T15:59:43.908Z,97225.59
2023-01-17T16:02:42.961Z,97216.84
2023-01-17T16:05:32.478Z,97229.47
2023-01-17T16:08:31.760Z,97237.03
2023-01-17T16:11:18.343Z,97235.63
2023-01-17T16:14:06.886Z,97246.03
2023-01-17T16:16:52.900Z,97254.41
2023-01-17T16:19:37.382Z,97265.06
2023-01-17T16:22:22.550Z,97273.22
2023-01-17T16:25:16.260Z,97257.28
2023-01-17T16:28:02.726Z,97255.84
2023-01-17T16:30:48.282Z,97261.94
2023-01-17T16:33:32.915Z,97268.44
2023-01-17T16:36:20.142Z,97269.38
2023-01-17T16:39:05.648Z,97260.88
2023-01-17T16:41:50.518Z,97272.16
2023-01-17T16:44:36.758Z,97271.72
2023-01-17T16:47:21.964Z,97270.41
2023-01-17T16:50:07.474Z,97275.94
2023-01-17T16:52:54.038Z,97283.44
2023-01-17T16:55:41.307Z,97288.97
2023-01-17T16:58:26.285Z,97293.50
2023-01-17T17:01:16.665Z,97299.03
2023-01-17T17:04:01.197Z,97312.50
2023-01-17T17:06:46.036Z,97320.69
2023-01-17T17:09:30.829Z,97341.91
2023-01-17T17:12:15.784Z,97337.13
2023-01-17T17:15:00.850Z,97342.09
2023-01-17T17:17:47.446Z,97352.56
2023-01-17T17:20:32.278Z,97373.53
2023-01-17T17:23:16.805Z,97385.47
2023-01-17T17:26:01.985Z,97384.78
2023-01-17T17:28:51.010Z,97380.69
2023-01-17T17:31:37.430Z,97393.19
2023-01-17T17:34:22.891Z,97393.97
2023-01-17T17:37:07.776Z,97380.63
2023-01-17T17:39:52.263Z,97380.97
2023-01-17T17:42:36.852Z,97381.41
2023-01-17T17:45:22.134Z,97382.47
2023-01-17T17:48:06.692Z,97381.00
2023-01-17T17:50:59.652Z,97385.19
2023-01-17T17:53:45.047Z,97394.44
2023-01-17T17:56:31.038Z,97397.69
2023-01-17T17:59:19.611Z,97402.56
2023-01-17T18:02:06.088Z,97401.06
2023-01-17T18:04:51.048Z,97394.09
2023-01-17T18:07:36.328Z,97390.94
2023-01-17T18:10:20.698Z,97398.69
2023-01-17T18:13:05.393Z,97401.63
2023-01-17T18:16:09.301Z,97406.72
2023-01-17T18:18:55.982Z,97399.69
2023-01-17T18:21:40.932Z,97407.44
2023-01-17T18:24:26.925Z,97409.75
2023-01-17T18:27:11.872Z,97419.69
2023-01-17T18:29:57.773Z,97406.09
2023-01-17T18:32:42.531Z,97406.72
2023-01-17T18:35:27.326Z,97400.44
2023-01-17T18:38:12.417Z,97407.63
2023-01-17T18:41:02.226Z,97411.78
2023-01-17T18:43:47.340Z,97409.47
2023-01-17T18:46:33.204Z,97405.59
2023-01-17T18:49:19.074Z,97418.69
2023-01-17T18:52:07.309Z,97413.63
2023-01-17T18:54:51.977Z,97406.56
2023-01-17T18:57:36.915Z,97399.75
2023-01-17T19:00:22.509Z,97404.16
2023-01-17T19:03:07.349Z,97410.81
2023-01-17T19:05:52.424Z,97412.94
2023-01-17T19:08:38.007Z,97412.16
2023-01-17T19:11:24.000Z,97412.38
2023-01-17T19:14:10.268Z,97421.94
2023-01-17T19:16:56.635Z,97417.88
2023-01-17T19:19:41.609Z,97412.44
2023-01-17T19:22:26.355Z,97417.88
2023-01-17T19:25:11.403Z,97427.00
2023-01-17T19:27:57.910Z,97429.53
2023-01-17T19:30:42.677Z,97433.66
2023-01-17T19:33:27.681Z,97434.84
2023-01-17T19:36:15.457Z,97427.59
2023-01-17T19:39:05.633Z,97422.53
2023-01-17T19:41:50.998Z,97434.22
2023-01-17T19:44:36.251Z,97429.34
2023-01-17T19:47:20.876Z,97427.22
2023-01-17T19:50:07.884Z,97429.22
2023-01-17T19:52:53.227Z,97444.03
2023-01-17T19:55:39.045Z,97446.75
2023-01-17T19:58:24.151Z,97445.97
2023-01-17T20:01:13.906Z,97446.19
2023-01-17T20:04:00.727Z,97440.97
2023-01-17T20:06:46.268Z,97452.09
2023-01-17T20:09:31.084Z,97448.44
2023-01-17T20:12:15.962Z,97455.13
2023-01-17T20:15:00.809Z,97465.69
2023-01-17T20:17:46.396Z,97464.34
2023-01-17T20:20:33.955Z,97462.38
2023-01-17T20:23:18.844Z,97464.50
2023-01-17T20:26:04.755Z,97469.38
2023-01-17T20:28:50.875Z,97457.66
2023-01-17T20:31:39.575Z,97450.84
2023-01-17T20:34:25.145Z,97446.75
2023-01-17T20:37:10.017Z,97450.69
2023-01-17T20:39:55.117Z,97447.56
2023-01-17T20:42:39.982Z,97451.28
2023-01-17T20:45:24.723Z,97455.63
2023-01-17T20:48:09.377Z,97453.69
2023-01-17T20:50:54.833Z,97455.66
2023-01-17T20:53:41.194Z,97449.25
2023-01-17T20:56:26.426Z,97444.59
2023-01-17T20:59:13.917Z,97442.28
2023-01-17T21:01:58.875Z,97441.72
2023-01-17T21:04:44.718Z,97447.38
2023-01-17T21:07:30.077Z,97444.84
2023-01-17T21:10:15.287Z,97449.13
2023-01-17T21:13:00.329Z,97439.78
2023-01-17T21:15:46.560Z,97438.81
2023-01-17T21:18:32.012Z,97454.44
2023-01-17T21:21:21.200Z,97431.59
2023-01-17T21:24:06.032Z,97438.41
2023-01-17T21:26:51.843Z,97441.28
2023-01-17T21:29:36.878Z,97436.78
2023-01-17T21:32:21.449Z,97432.69
2023-01-17T21:35:07.055Z,97435.06
2023-01-17T21:37:52.010Z,97433.50
2023-01-17T21:40:36.887Z,97428.09
2023-01-17T21:43:21.368Z,97428.09
2023-01-17T21:46:06.755Z,97432.25
2023-01-17T21:48:51.282Z,97431.88
2023-01-17T21:51:54.574Z,97428.00
2023-01-17T21:54:57.722Z,97440.81
2023-01-17T21:58:01.288Z,97445.09
2023-01-17T22:00:45.968Z,97441.22
2023-01-17T22:03:31.099Z,97448.09
2023-01-17T22:06:16.058Z,97441.63
2023-01-17T22:09:01.165Z,97457.63
2023-01-17T22:11:45.885Z,97460.94
2023-01-17T22:14:30.401Z,97462.28
2023-01-17T22:17:14.844Z,97470.44
2023-01-17T22:19:59.343Z,97470.34
2023-01-17T22:22:44.334Z,97474.19
2023-01-17T22:25:30.001Z,97461.88
2023-01-17T22:28:15.001Z,97470.84
2023-01-17T22:31:24.190Z,97465.81
2023-01-17T22:34:08.688Z,97469.53
2023-01-17T22:36:53.507Z,97462.97
2023-01-17T22:39:39.065Z,97469.63
2023-01-17T22:42:23.522Z,97471.63
2023-01-17T22:45:09.700Z,97463.44
2023-01-17T22:47:54.493Z,97465.38
2023-01-17T22:50:39.751Z,97463.44
2023-01-17T22:53:24.779Z,97463.78
2023-01-17T22:56:12.002Z,97465.13
2023-01-17T22:58:59.978Z,97465.28
2023-01-17T23:01:44.968Z,97451.78
2023-01-17T23:04:29.625Z,97454.47
2023-01-17T23:07:15.330Z,97441.94
2023-01-17T23:09:59.785Z,97427.63
2023-01-17T23:12:45.822Z,97424.28
2023-01-17T23:15:48.895Z,97410.81
2023-01-17T23:18:52.230Z,97428.56
2023-01-17T23:21:56.084Z,97438.50
2023-01-17T23:24:43.207Z,97440.84
2023-01-17T23:28:05.559Z,97441.41
2023-01-17T23:30:50.352Z,97426.88
2023-01-17T23:33:35.491Z,97429.78
2023-01-17T23:36:20.514Z,97427.59
2023-01-17T23:39:05.491Z,97411.94
2023-01-17T23:42:08.906Z,97404.66
2023-01-17T23:44:53.792Z,97409.56
2023-01-17T23:47:38.754Z,97391.34
2023-01-17T23:50:23.396Z,97377.44
2023-01-17T23:53:09.710Z,97382.31
2023-01-17T23:55:56.228Z,97375.25
2023-01-17T23:58:41.035Z,97377.78
